ΕΜΥ, Εθνική Μετεωρολογική Υπηρεσία - Δελτία Καιρού, Προγνώσεις

ΑΕΡΟΝΑΥΤΙΛΙΑ

GREEK AIRPORTS CODES

LGST 170700Z 30010KT 9999 FEW020 BKN025 10/02 Q1024=

EUROPEAN AIRPORTS CODES

LFPO 170730Z 29005KT 6000 BKN015 04/04 Q1037 TEMPO 4000 BRBKN010=